sensor_id;sensor_type;location;lat;lon;timestamp;temperature;humidity
61151;DHT22;47029;50.994;2.876;2022-07-21T00:01:46;19.70;99.90
61151;DHT22;47029;50.994;2.876;2022-07-21T00:04:12;19.70;99.90
61151;DHT22;47029;50.994;2.876;2022-07-21T00:06:38;19.60;99.90
61151;DHT22;47029;50.994;2.876;2022-07-21T00:09:04;19.40;99.90
61151;DHT22;47029;50.994;2.876;2022-07-21T00:11:30;19.20;99.90
61151;DHT22;47029;50.994;2.876;2022-07-21T00:13:56;18.90;99.90
61151;DHT22;47029;50.994;2.876;2022-07-21T00:16:22;19.40;99.90
61151;DHT22;47029;50.994;2.876;2022-07-21T00:18:47;19.50;99.90
61151;DHT22;47029;50.994;2.876;2022-07-21T00:21:13;19.50;99.90
61151;DHT22;47029;50.994;2.876;2022-07-21T00:23:39;19.40;99.90
61151;DHT22;47029;50.994;2.876;2022-07-21T00:26:05;19.50;99.90
61151;DHT22;47029;50.994;2.876;2022-07-21T00:28:31;19.60;99.90
61151;DHT22;47029;50.994;2.876;2022-07-21T00:30:57;19.70;99.90
61151;DHT22;47029;50.994;2.876;2022-07-21T00:33:22;19.70;99.90
61151;DHT22;47029;50.994;2.876;2022-07-21T00:35:48;19.60;99.90
61151;DHT22;47029;50.994;2.876;2022-07-21T00:38:14;19.60;99.90
61151;DHT22;47029;50.994;2.876;2022-07-21T00:40:40;19.50;99.90
61151;DHT22;47029;50.994;2.876;2022-07-21T00:43:06;19.80;99.90
61151;DHT22;47029;50.994;2.876;2022-07-21T00:45:32;19.50;99.90
61151;DHT22;47029;50.994;2.876;2022-07-21T00:47:58;20.10;99.90
61151;DHT22;47029;50.994;2.876;2022-07-21T00:50:24;19.60;99.90
61151;DHT22;47029;50.994;2.876;2022-07-21T00:52:51;19.60;99.90
61151;DHT22;47029;50.994;2.876;2022-07-21T00:55:19;19.50;99.90
61151;DHT22;47029;50.994;2.876;2022-07-21T00:57:46;19.40;99.90
61151;DHT22;47029;50.994;2.876;2022-07-21T01:00:21;19.40;99.90
61151;DHT22;47029;50.994;2.876;2022-07-21T01:02:47;19.50;99.90
61151;DHT22;47029;50.994;2.876;2022-07-21T01:05:14;19.40;99.90
61151;DHT22;47029;50.994;2.876;2022-07-21T01:07:46;19.50;99.90
61151;DHT22;47029;50.994;2.876;2022-07-21T01:10:14;19.40;99.90
61151;DHT22;47029;50.994;2.876;2022-07-21T01:12:40;19.40;99.90
61151;DHT22;47029;50.994;2.876;2022-07-21T01:15:07;19.60;99.90
61151;DHT22;47029;50.994;2.876;2022-07-21T01:17:35;19.60;99.90
61151;DHT22;47029;50.994;2.876;2022-07-21T01:20:04;19.70;99.90
61151;DHT22;47029;50.994;2.876;2022-07-21T01:22:32;19.70;99.90
61151;DHT22;47029;50.994;2.876;2022-07-21T01:24:58;19.40;99.90
61151;DHT22;47029;50.994;2.876;2022-07-21T01:27:28;19.70;99.90
61151;DHT22;47029;50.994;2.876;2022-07-21T01:29:55;19.60;99.90
61151;DHT22;47029;50.994;2.876;2022-07-21T01:32:21;19.60;99.90
61151;DHT22;47029;50.994;2.876;2022-07-21T01:34:48;19.50;99.90
61151;DHT22;47029;50.994;2.876;2022-07-21T01:37:14;19.40;99.90
61151;DHT22;47029;50.994;2.876;2022-07-21T01:39:40;19.40;99.90
61151;DHT22;47029;50.994;2.876;2022-07-21T01:42:25;19.30;99.90
61151;DHT22;47029;50.994;2.876;2022-07-21T01:44:51;19.20;99.90
61151;DHT22;47029;50.994;2.876;2022-07-21T01:47:17;19.30;99.90
61151;DHT22;47029;50.994;2.876;2022-07-21T01:49:46;19.30;99.90
61151;DHT22;47029;50.994;2.876;2022-07-21T01:52:11;19.30;99.90
61151;DHT22;47029;50.994;2.876;2022-07-21T01:54:37;19.20;99.90
61151;DHT22;47029;50.994;2.876;2022-07-21T01:57:03;19.20;99.90
61151;DHT22;47029;50.994;2.876;2022-07-21T01:59:29;19.30;99.90
61151;DHT22;47029;50.994;2.876;2022-07-21T02:01:55;19.30;99.90
61151;DHT22;47029;50.994;2.876;2022-07-21T02:04:21;19.20;99.90
61151;DHT22;47029;50.994;2.876;2022-07-21T02:06:47;19.20;99.90
61151;DHT22;47029;50.994;2.876;2022-07-21T02:09:13;19.20;99.90
61151;DHT22;47029;50.994;2.876;2022-07-21T02:11:39;19.20;99.90
61151;DHT22;47029;50.994;2.876;2022-07-21T02:14:05;19.20;99.90
61151;DHT22;47029;50.994;2.876;2022-07-21T02:16:31;18.60;99.90
61151;DHT22;47029;50.994;2.876;2022-07-21T02:18:57;19.30;99.90
61151;DHT22;47029;50.994;2.876;2022-07-21T02:21:23;19.30;99.90
61151;DHT22;47029;50.994;2.876;2022-07-21T02:23:49;19.20;99.90
61151;DHT22;47029;50.994;2.876;2022-07-21T02:26:15;19.30;99.90
61151;DHT22;47029;50.994;2.876;2022-07-21T02:28:41;19.30;99.90
61151;DHT22;47029;50.994;2.876;2022-07-21T02:31:07;19.30;99.90
61151;DHT22;47029;50.994;2.876;2022-07-21T02:33:33;19.30;99.90
61151;DHT22;47029;50.994;2.876;2022-07-21T02:35:59;19.30;99.90
61151;DHT22;47029;50.994;2.876;2022-07-21T02:38:25;19.30;99.90
61151;DHT22;47029;50.994;2.876;2022-07-21T02:40:51;19.30;99.90
61151;DHT22;47029;50.994;2.876;2022-07-21T02:43:17;19.30;99.90
61151;DHT22;47029;50.994;2.876;2022-07-21T02:45:43;19.20;99.90
61151;DHT22;47029;50.994;2.876;2022-07-21T02:48:12;19.30;99.90
61151;DHT22;47029;50.994;2.876;2022-07-21T02:50:40;19.30;99.90
61151;DHT22;47029;50.994;2.876;2022-07-21T02:53:08;19.30;99.90
61151;DHT22;47029;50.994;2.876;2022-07-21T02:55:35;19.20;99.90
61151;DHT22;47029;50.994;2.876;2022-07-21T02:58:23;19.30;99.90
61151;DHT22;47029;50.994;2.876;2022-07-21T03:00:57;19.30;99.90
61151;DHT22;47029;50.994;2.876;2022-07-21T03:03:26;19.20;99.90
61151;DHT22;47029;50.994;2.876;2022-07-21T03:05:52;19.30;99.90
61151;DHT22;47029;50.994;2.876;2022-07-21T03:08:19;19.20;99.90
61151;DHT22;47029;50.994;2.876;2022-07-21T03:10:46;19.20;99.90
61151;DHT22;47029;50.994;2.876;2022-07-21T03:13:12;19.30;99.90
61151;DHT22;47029;50.994;2.876;2022-07-21T03:15:38;19.20;99.90
61151;DHT22;47029;50.994;2.876;2022-07-21T03:18:04;19.30;99.90
61151;DHT22;47029;50.994;2.876;2022-07-21T03:20:32;19.30;99.90
61151;DHT22;47029;50.994;2.876;2022-07-21T03:22:58;19.30;99.90
61151;DHT22;47029;50.994;2.876;2022-07-21T03:25:25;19.30;99.90
61151;DHT22;47029;50.994;2.876;2022-07-21T03:27:51;19.30;99.90
61151;DHT22;47029;50.994;2.876;2022-07-21T03:30:17;19.10;99.90
61151;DHT22;47029;50.994;2.876;2022-07-21T03:32:44;19.30;99.90
61151;DHT22;47029;50.994;2.876;2022-07-21T03:35:12;19.40;99.90
61151;DHT22;47029;50.994;2.876;2022-07-21T03:37:47;19.40;99.90
61151;DHT22;47029;50.994;2.876;2022-07-21T03:40:15;19.30;99.90
61151;DHT22;47029;50.994;2.876;2022-07-21T03:42:42;19.30;99.90
61151;DHT22;47029;50.994;2.876;2022-07-21T03:45:09;19.30;99.90
61151;DHT22;47029;50.994;2.876;2022-07-21T03:47:35;19.40;99.90
61151;DHT22;47029;50.994;2.876;2022-07-21T03:50:02;19.30;99.90
61151;DHT22;47029;50.994;2.876;2022-07-21T03:52:28;19.20;99.90
61151;DHT22;47029;50.994;2.876;2022-07-21T03:54:54;19.20;99.90
61151;DHT22;47029;50.994;2.876;2022-07-21T03:57:38;19.20;99.90
61151;DHT22;47029;50.994;2.876;2022-07-21T04:00:07;18.50;99.90
61151;DHT22;47029;50.994;2.876;2022-07-21T04:02:33;19.10;99.90
61151;DHT22;47029;50.994;2.876;2022-07-21T04:04:59;19.10;99.90
61151;DHT22;47029;50.994;2.876;2022-07-21T04:07:25;19.20;99.90
61151;DHT22;47029;50.994;2.876;2022-07-21T04:09:51;19.20;99.90
61151;DHT22;47029;50.994;2.876;2022-07-21T04:12:17;19.20;99.90
61151;DHT22;47029;50.994;2.876;2022-07-21T04:14:43;19.20;99.90
61151;DHT22;47029;50.994;2.876;2022-07-21T04:17:09;19.30;99.90
61151;DHT22;47029;50.994;2.876;2022-07-21T04:19:35;19.20;99.90
61151;DHT22;47029;50.994;2.876;2022-07-21T04:22:01;19.30;99.90
61151;DHT22;47029;50.994;2.876;2022-07-21T04:24:27;19.40;99.90
61151;DHT22;47029;50.994;2.876;2022-07-21T04:26:53;19.20;99.90
61151;DHT22;47029;50.994;2.876;2022-07-21T04:29:19;19.30;99.90
61151;DHT22;47029;50.994;2.876;2022-07-21T04:31:44;19.10;99.90
61151;DHT22;47029;50.994;2.876;2022-07-21T04:34:10;19.40;99.90
61151;DHT22;47029;50.994;2.876;2022-07-21T04:36:36;19.10;99.90
61151;DHT22;47029;50.994;2.876;2022-07-21T04:39:02;19.20;99.90
61151;DHT22;47029;50.994;2.876;2022-07-21T04:41:28;19.40;99.90
61151;DHT22;47029;50.994;2.876;2022-07-21T04:43:54;19.40;99.90
61151;DHT22;47029;50.994;2.876;2022-07-21T04:46:19;19.50;99.90
61151;DHT22;47029;50.994;2.876;2022-07-21T04:48:45;19.30;99.90
61151;DHT22;47029;50.994;2.876;2022-07-21T04:51:11;19.10;99.90
61151;DHT22;47029;50.994;2.876;2022-07-21T04:53:37;19.10;99.90
61151;DHT22;47029;50.994;2.876;2022-07-21T04:56:03;19.30;99.90
61151;DHT22;47029;50.994;2.876;2022-07-21T04:58:29;19.00;99.90
61151;DHT22;47029;50.994;2.876;2022-07-21T05:00:55;18.80;99.90
61151;DHT22;47029;50.994;2.876;2022-07-21T05:03:21;18.80;99.90
61151;DHT22;47029;50.994;2.876;2022-07-21T05:05:47;18.90;99.90
61151;DHT22;47029;50.994;2.876;2022-07-21T05:08:13;18.90;99.90
61151;DHT22;47029;50.994;2.876;2022-07-21T05:10:38;19.00;99.90
61151;DHT22;47029;50.994;2.876;2022-07-21T05:13:04;18.90;99.90
61151;DHT22;47029;50.994;2.876;2022-07-21T05:15:30;18.60;99.90
61151;DHT22;47029;50.994;2.876;2022-07-21T05:17:56;18.80;99.90
61151;DHT22;47029;50.994;2.876;2022-07-21T05:20:22;18.90;99.90
61151;DHT22;47029;50.994;2.876;2022-07-21T05:22:48;19.00;99.90
61151;DHT22;47029;50.994;2.876;2022-07-21T05:25:14;19.10;99.90
61151;DHT22;47029;50.994;2.876;2022-07-21T05:27:40;18.80;99.90
61151;DHT22;47029;50.994;2.876;2022-07-21T05:30:06;18.80;99.90
61151;DHT22;47029;50.994;2.876;2022-07-21T05:32:32;18.70;99.90
61151;DHT22;47029;50.994;2.876;2022-07-21T05:34:58;18.70;99.90
61151;DHT22;47029;50.994;2.876;2022-07-21T05:37:24;18.80;99.90
61151;DHT22;47029;50.994;2.876;2022-07-21T05:39:51;19.20;99.90
61151;DHT22;47029;50.994;2.876;2022-07-21T05:42:17;19.30;99.90
61151;DHT22;47029;50.994;2.876;2022-07-21T05:44:43;19.60;99.90
61151;DHT22;47029;50.994;2.876;2022-07-21T05:47:09;19.70;99.90
61151;DHT22;47029;50.994;2.876;2022-07-21T05:49:35;19.70;99.90
61151;DHT22;47029;50.994;2.876;2022-07-21T05:52:01;19.30;99.90
61151;DHT22;47029;50.994;2.876;2022-07-21T05:54:27;19.20;99.90
61151;DHT22;47029;50.994;2.876;2022-07-21T05:56:52;19.10;99.90
61151;DHT22;47029;50.994;2.876;2022-07-21T05:59:18;19.20;99.90
61151;DHT22;47029;50.994;2.876;2022-07-21T06:01:44;19.10;99.90
61151;DHT22;47029;50.994;2.876;2022-07-21T06:04:10;19.00;99.90
61151;DHT22;47029;50.994;2.876;2022-07-21T06:06:36;19.10;99.90
61151;DHT22;47029;50.994;2.876;2022-07-21T06:09:02;19.30;99.90
61151;DHT22;47029;50.994;2.876;2022-07-21T06:11:28;19.50;99.90
61151;DHT22;47029;50.994;2.876;2022-07-21T06:13:53;19.50;99.90
61151;DHT22;47029;50.994;2.876;2022-07-21T06:16:19;19.50;99.90
61151;DHT22;47029;50.994;2.876;2022-07-21T06:18:45;19.40;99.90
61151;DHT22;47029;50.994;2.876;2022-07-21T06:21:11;19.50;99.90
61151;DHT22;47029;50.994;2.876;2022-07-21T06:23:37;19.60;99.90
61151;DHT22;47029;50.994;2.876;2022-07-21T06:26:03;19.60;99.90
61151;DHT22;47029;50.994;2.876;2022-07-21T06:28:29;19.80;99.90
61151;DHT22;47029;50.994;2.876;2022-07-21T06:30:55;19.60;99.90
61151;DHT22;47029;50.994;2.876;2022-07-21T06:33:20;19.60;99.90
61151;DHT22;47029;50.994;2.876;2022-07-21T06:35:46;19.50;99.90
61151;DHT22;47029;50.994;2.876;2022-07-21T06:38:12;19.40;99.90
61151;DHT22;47029;50.994;2.876;2022-07-21T06:40:38;19.40;99.90
61151;DHT22;47029;50.994;2.876;2022-07-21T06:43:04;19.40;99.90
61151;DHT22;47029;50.994;2.876;2022-07-21T06:45:31;19.40;99.90
61151;DHT22;47029;50.994;2.876;2022-07-21T06:48:04;19.50;99.90
61151;DHT22;47029;50.994;2.876;2022-07-21T06:50:30;19.30;99.90
61151;DHT22;47029;50.994;2.876;2022-07-21T06:52:56;19.30;99.90
61151;DHT22;47029;50.994;2.876;2022-07-21T06:55:23;19.20;99.90
61151;DHT22;47029;50.994;2.876;2022-07-21T06:57:49;19.30;99.90
61151;DHT22;47029;50.994;2.876;2022-07-21T07:00:15;19.30;99.90
61151;DHT22;47029;50.994;2.876;2022-07-21T07:02:41;19.30;99.90
61151;DHT22;47029;50.994;2.876;2022-07-21T07:05:07;19.30;99.90
61151;DHT22;47029;50.994;2.876;2022-07-21T07:07:33;19.40;99.90
61151;DHT22;47029;50.994;2.876;2022-07-21T07:09:59;19.40;99.90
61151;DHT22;47029;50.994;2.876;2022-07-21T07:12:25;19.50;99.90
61151;DHT22;47029;50.994;2.876;2022-07-21T07:14:51;19.50;99.90
61151;DHT22;47029;50.994;2.876;2022-07-21T07:17:18;19.50;99.90
61151;DHT22;47029;50.994;2.876;2022-07-21T07:19:45;19.60;99.90
61151;DHT22;47029;50.994;2.876;2022-07-21T07:22:11;19.60;99.90
61151;DHT22;47029;50.994;2.876;2022-07-21T07:24:37;19.60;99.90
61151;DHT22;47029;50.994;2.876;2022-07-21T07:27:03;19.60;99.90
61151;DHT22;47029;50.994;2.876;2022-07-21T07:29:29;19.70;99.90
61151;DHT22;47029;50.994;2.876;2022-07-21T07:31:57;19.70;99.90
61151;DHT22;47029;50.994;2.876;2022-07-21T07:34:23;19.70;99.90
61151;DHT22;47029;50.994;2.876;2022-07-21T07:36:49;19.50;99.90
61151;DHT22;47029;50.994;2.876;2022-07-21T07:39:15;19.40;99.90
61151;DHT22;47029;50.994;2.876;2022-07-21T07:41:42;19.40;99.90
61151;DHT22;47029;50.994;2.876;2022-07-21T07:44:08;19.30;99.90
61151;DHT22;47029;50.994;2.876;2022-07-21T07:46:34;19.50;99.90
61151;DHT22;47029;50.994;2.876;2022-07-21T07:49:00;19.40;99.90
61151;DHT22;47029;50.994;2.876;2022-07-21T07:51:26;19.40;99.90
61151;DHT22;47029;50.994;2.876;2022-07-21T07:53:52;19.30;99.90
61151;DHT22;47029;50.994;2.876;2022-07-21T07:56:18;19.30;99.90
61151;DHT22;47029;50.994;2.876;2022-07-21T07:58:45;19.40;99.90
61151;DHT22;47029;50.994;2.876;2022-07-21T08:01:10;19.40;99.90
61151;DHT22;47029;50.994;2.876;2022-07-21T08:03:37;19.50;99.90
61151;DHT22;47029;50.994;2.876;2022-07-21T08:06:03;19.60;99.90
61151;DHT22;47029;50.994;2.876;2022-07-21T08:08:30;19.90;99.90
61151;DHT22;47029;50.994;2.876;2022-07-21T08:10:56;20.00;99.90
61151;DHT22;47029;50.994;2.876;2022-07-21T08:13:22;20.10;99.90
61151;DHT22;47029;50.994;2.876;2022-07-21T08:15:49;20.00;99.90
61151;DHT22;47029;50.994;2.876;2022-07-21T08:18:16;20.00;99.90
61151;DHT22;47029;50.994;2.876;2022-07-21T08:20:43;19.40;99.90
61151;DHT22;47029;50.994;2.876;2022-07-21T08:23:11;19.70;99.90
61151;DHT22;47029;50.994;2.876;2022-07-21T08:25:37;19.80;99.90
61151;DHT22;47029;50.994;2.876;2022-07-21T08:28:04;20.20;99.90
61151;DHT22;47029;50.994;2.876;2022-07-21T08:30:30;19.80;99.90
61151;DHT22;47029;50.994;2.876;2022-07-21T08:32:57;19.80;99.90
61151;DHT22;47029;50.994;2.876;2022-07-21T08:35:23;19.90;99.90
61151;DHT22;47029;50.994;2.876;2022-07-21T08:37:55;19.80;99.90
61151;DHT22;47029;50.994;2.876;2022-07-21T08:40:27;19.90;99.90
61151;DHT22;47029;50.994;2.876;2022-07-21T08:42:54;19.70;99.90
61151;DHT22;47029;50.994;2.876;2022-07-21T08:45:21;19.60;99.90
61151;DHT22;47029;50.994;2.876;2022-07-21T08:47:51;19.50;99.90
61151;DHT22;47029;50.994;2.876;2022-07-21T08:50:17;19.80;99.90
61151;DHT22;47029;50.994;2.876;2022-07-21T08:52:43;19.50;99.90
61151;DHT22;47029;50.994;2.876;2022-07-21T08:55:09;19.40;99.90
61151;DHT22;47029;50.994;2.876;2022-07-21T08:57:38;19.40;99.90
61151;DHT22;47029;50.994;2.876;2022-07-21T09:00:06;19.60;99.90
61151;DHT22;47029;50.994;2.876;2022-07-21T09:02:34;19.70;99.90
61151;DHT22;47029;50.994;2.876;2022-07-21T09:05:01;19.70;99.90
61151;DHT22;47029;50.994;2.876;2022-07-21T09:07:27;19.80;99.90
61151;DHT22;47029;50.994;2.876;2022-07-21T09:09:59;19.80;99.90
61151;DHT22;47029;50.994;2.876;2022-07-21T09:12:27;19.70;99.90
61151;DHT22;47029;50.994;2.876;2022-07-21T09:15:13;19.80;99.90
61151;DHT22;47029;50.994;2.876;2022-07-21T09:17:39;19.90;99.90
61151;DHT22;47029;50.994;2.876;2022-07-21T09:20:24;20.00;99.90
61151;DHT22;47029;50.994;2.876;2022-07-21T09:23:11;20.20;99.90
61151;DHT22;47029;50.994;2.876;2022-07-21T09:25:43;20.30;99.90
61151;DHT22;47029;50.994;2.876;2022-07-21T09:28:13;20.20;99.90
61151;DHT22;47029;50.994;2.876;2022-07-21T09:30:59;20.20;99.90
61151;DHT22;47029;50.994;2.876;2022-07-21T09:33:41;20.20;99.90
61151;DHT22;47029;50.994;2.876;2022-07-21T09:36:11;20.40;99.90
61151;DHT22;47029;50.994;2.876;2022-07-21T09:41:19;20.30;99.90
61151;DHT22;47029;50.994;2.876;2022-07-21T09:43:49;20.10;99.90
61151;DHT22;47029;50.994;2.876;2022-07-21T09:48:48;20.10;99.90
61151;DHT22;47029;50.994;2.876;2022-07-21T09:51:34;20.10;99.90
61151;DHT22;47029;50.994;2.876;2022-07-21T09:56:33;20.10;99.90
61151;DHT22;47029;50.994;2.876;2022-07-21T09:59:00;20.20;99.90
61151;DHT22;47029;50.994;2.876;2022-07-21T10:01:28;20.10;99.90
61151;DHT22;47029;50.994;2.876;2022-07-21T10:03:55;20.20;99.90
61151;DHT22;47029;50.994;2.876;2022-07-21T10:06:30;20.10;99.90
61151;DHT22;47029;50.994;2.876;2022-07-21T10:08:58;20.00;99.90
61151;DHT22;47029;50.994;2.876;2022-07-21T10:11:25;19.50;99.90
61151;DHT22;47029;50.994;2.876;2022-07-21T10:13:52;19.80;99.90
61151;DHT22;47029;50.994;2.876;2022-07-21T10:16:19;19.90;99.90
61151;DHT22;47029;50.994;2.876;2022-07-21T10:22:08;20.10;99.90
61151;DHT22;47029;50.994;2.876;2022-07-21T10:24:35;19.90;99.90
61151;DHT22;47029;50.994;2.876;2022-07-21T10:27:08;19.90;99.90
61151;DHT22;47029;50.994;2.876;2022-07-21T10:29:54;19.90;99.90
61151;DHT22;47029;50.994;2.876;2022-07-21T10:32:22;20.00;99.90
61151;DHT22;47029;50.994;2.876;2022-07-21T10:34:49;20.00;99.90
61151;DHT22;47029;50.994;2.876;2022-07-21T10:37:43;20.00;99.90
61151;DHT22;47029;50.994;2.876;2022-07-21T10:42:39;20.10;99.90
61151;DHT22;47029;50.994;2.876;2022-07-21T10:45:34;20.10;99.90
61151;DHT22;47029;50.994;2.876;2022-07-21T10:48:03;19.80;99.90
61151;DHT22;47029;50.994;2.876;2022-07-21T10:53:13;19.90;99.90
61151;DHT22;47029;50.994;2.876;2022-07-21T10:55:46;19.80;99.90
61151;DHT22;47029;50.994;2.876;2022-07-21T10:58:29;19.80;99.90
61151;DHT22;47029;50.994;2.876;2022-07-21T11:03:33;19.90;99.90
61151;DHT22;47029;50.994;2.876;2022-07-21T11:08:33;20.00;99.90
61151;DHT22;47029;50.994;2.876;2022-07-21T11:11:22;20.20;99.90
61151;DHT22;47029;50.994;2.876;2022-07-21T11:19:34;20.70;99.90
61151;DHT22;47029;50.994;2.876;2022-07-21T11:22:05;20.50;99.90
61151;DHT22;47029;50.994;2.876;2022-07-21T11:24:32;20.80;99.90
61151;DHT22;47029;50.994;2.876;2022-07-21T11:29:28;20.90;99.90
61151;DHT22;47029;50.994;2.876;2022-07-21T11:31:55;20.70;99.90
61151;DHT22;47029;50.994;2.876;2022-07-21T11:34:23;20.30;99.90
61151;DHT22;47029;50.994;2.876;2022-07-21T11:37:01;20.40;99.90
61151;DHT22;47029;50.994;2.876;2022-07-21T11:39:27;20.50;99.90
61151;DHT22;47029;50.994;2.876;2022-07-21T11:41:53;20.40;99.90
61151;DHT22;47029;50.994;2.876;2022-07-21T11:44:24;20.40;99.90
61151;DHT22;47029;50.994;2.876;2022-07-21T11:46:53;20.50;99.90
61151;DHT22;47029;50.994;2.876;2022-07-21T11:49:19;20.60;99.90
61151;DHT22;47029;50.994;2.876;2022-07-21T11:51:50;20.60;99.90
61151;DHT22;47029;50.994;2.876;2022-07-21T11:54:24;21.30;99.90
61151;DHT22;47029;50.994;2.876;2022-07-21T11:56:51;20.30;99.90
61151;DHT22;47029;50.994;2.876;2022-07-21T11:59:17;20.80;99.90
61151;DHT22;47029;50.994;2.876;2022-07-21T12:01:54;20.90;99.90
61151;DHT22;47029;50.994;2.876;2022-07-21T12:06:57;20.60;99.90
61151;DHT22;47029;50.994;2.876;2022-07-21T12:09:24;20.30;99.90
61151;DHT22;47029;50.994;2.876;2022-07-21T12:11:50;20.40;99.90
61151;DHT22;47029;50.994;2.876;2022-07-21T12:14:17;20.50;99.90
61151;DHT22;47029;50.994;2.876;2022-07-21T12:16:50;20.60;99.90
61151;DHT22;47029;50.994;2.876;2022-07-21T12:19:17;20.80;99.90
61151;DHT22;47029;50.994;2.876;2022-07-21T12:21:51;21.00;99.90
61151;DHT22;47029;50.994;2.876;2022-07-21T12:24:19;21.10;99.90
61151;DHT22;47029;50.994;2.876;2022-07-21T12:26:46;20.90;99.90
61151;DHT22;47029;50.994;2.876;2022-07-21T12:29:28;20.90;99.90
61151;DHT22;47029;50.994;2.876;2022-07-21T12:31:55;21.00;99.90
61151;DHT22;47029;50.994;2.876;2022-07-21T12:34:21;21.30;99.90
61151;DHT22;47029;50.994;2.876;2022-07-21T12:36:50;20.90;99.90
61151;DHT22;47029;50.994;2.876;2022-07-21T12:39:23;21.40;99.90
61151;DHT22;47029;50.994;2.876;2022-07-21T12:42:11;21.00;99.90
61151;DHT22;47029;50.994;2.876;2022-07-21T12:44:52;20.20;99.90
61151;DHT22;47029;50.994;2.876;2022-07-21T12:47:20;21.10;99.90
61151;DHT22;47029;50.994;2.876;2022-07-21T12:50:05;21.10;99.90
61151;DHT22;47029;50.994;2.876;2022-07-21T12:52:32;21.30;99.90
61151;DHT22;47029;50.994;2.876;2022-07-21T12:54:59;21.50;99.90
61151;DHT22;47029;50.994;2.876;2022-07-21T12:57:35;21.50;99.90
61151;DHT22;47029;50.994;2.876;2022-07-21T13:00:03;21.30;99.90
61151;DHT22;47029;50.994;2.876;2022-07-21T13:02:47;21.60;99.90
61151;DHT22;47029;50.994;2.876;2022-07-21T13:05:31;21.50;99.90
61151;DHT22;47029;50.994;2.876;2022-07-21T13:07:56;21.30;99.90
61151;DHT22;47029;50.994;2.876;2022-07-21T13:10:22;21.50;99.90
61151;DHT22;47029;50.994;2.876;2022-07-21T13:12:49;21.40;99.90
61151;DHT22;47029;50.994;2.876;2022-07-21T13:15:15;20.90;99.90
61151;DHT22;47029;50.994;2.876;2022-07-21T13:17:42;21.40;99.90
61151;DHT22;47029;50.994;2.876;2022-07-21T13:20:08;21.40;99.90
61151;DHT22;47029;50.994;2.876;2022-07-21T13:22:34;21.40;99.90
61151;DHT22;47029;50.994;2.876;2022-07-21T13:25:01;21.30;99.90
61151;DHT22;47029;50.994;2.876;2022-07-21T13:27:27;21.30;99.90
61151;DHT22;47029;50.994;2.876;2022-07-21T13:29:53;21.50;99.90
61151;DHT22;47029;50.994;2.876;2022-07-21T13:32:19;21.60;99.90
61151;DHT22;47029;50.994;2.876;2022-07-21T13:34:45;21.20;99.90
61151;DHT22;47029;50.994;2.876;2022-07-21T13:37:11;21.40;99.90
61151;DHT22;47029;50.994;2.876;2022-07-21T13:39:40;21.20;99.90
61151;DHT22;47029;50.994;2.876;2022-07-21T13:42:07;21.10;99.90
61151;DHT22;47029;50.994;2.876;2022-07-21T13:44:34;21.00;99.90
61151;DHT22;47029;50.994;2.876;2022-07-21T13:47:00;20.90;99.90
61151;DHT22;47029;50.994;2.876;2022-07-21T13:49:26;20.90;99.90
61151;DHT22;47029;50.994;2.876;2022-07-21T13:51:52;20.80;99.90
61151;DHT22;47029;50.994;2.876;2022-07-21T13:54:18;20.40;99.90
61151;DHT22;47029;50.994;2.876;2022-07-21T13:56:45;21.00;99.90
61151;DHT22;47029;50.994;2.876;2022-07-21T13:59:11;21.40;99.90
61151;DHT22;47029;50.994;2.876;2022-07-21T14:01:37;21.40;99.90
61151;DHT22;47029;50.994;2.876;2022-07-21T14:04:03;21.20;99.90
61151;DHT22;47029;50.994;2.876;2022-07-21T14:06:29;21.10;99.90
61151;DHT22;47029;50.994;2.876;2022-07-21T14:08:55;21.00;99.90
61151;DHT22;47029;50.994;2.876;2022-07-21T14:11:21;21.10;99.90
61151;DHT22;47029;50.994;2.876;2022-07-21T14:13:49;21.10;99.90
61151;DHT22;47029;50.994;2.876;2022-07-21T14:16:15;21.10;99.90
61151;DHT22;47029;50.994;2.876;2022-07-21T14:18:42;21.10;99.90
61151;DHT22;47029;50.994;2.876;2022-07-21T14:21:08;21.30;99.90
61151;DHT22;47029;50.994;2.876;2022-07-21T14:23:34;21.40;99.90
61151;DHT22;47029;50.994;2.876;2022-07-21T14:26:00;21.50;99.90
61151;DHT22;47029;50.994;2.876;2022-07-21T14:28:27;21.40;99.90
61151;DHT22;47029;50.994;2.876;2022-07-21T14:30:53;21.60;99.90
61151;DHT22;47029;50.994;2.876;2022-07-21T14:33:19;21.40;99.90
61151;DHT22;47029;50.994;2.876;2022-07-21T14:35:45;21.00;99.90
61151;DHT22;47029;50.994;2.876;2022-07-21T14:38:11;21.30;99.90
61151;DHT22;47029;50.994;2.876;2022-07-21T14:40:37;21.20;99.90
61151;DHT22;47029;50.994;2.876;2022-07-21T14:43:04;21.20;99.90
61151;DHT22;47029;50.994;2.876;2022-07-21T14:45:30;21.30;99.90
61151;DHT22;47029;50.994;2.876;2022-07-21T14:47:57;21.30;99.90
61151;DHT22;47029;50.994;2.876;2022-07-21T14:50:26;21.40;99.90
61151;DHT22;47029;50.994;2.876;2022-07-21T14:52:52;21.40;99.90
61151;DHT22;47029;50.994;2.876;2022-07-21T14:55:18;21.40;99.90
61151;DHT22;47029;50.994;2.876;2022-07-21T14:57:48;21.50;99.90
61151;DHT22;47029;50.994;2.876;2022-07-21T15:00:15;21.60;99.90
61151;DHT22;47029;50.994;2.876;2022-07-21T15:02:41;21.50;99.90
61151;DHT22;47029;50.994;2.876;2022-07-21T15:05:07;21.50;99.90
61151;DHT22;47029;50.994;2.876;2022-07-21T15:07:33;21.60;99.90
61151;DHT22;47029;50.994;2.876;2022-07-21T15:09:59;21.60;99.90
61151;DHT22;47029;50.994;2.876;2022-07-21T15:12:25;21.90;99.90
61151;DHT22;47029;50.994;2.876;2022-07-21T15:14:51;22.00;99.90
61151;DHT22;47029;50.994;2.876;2022-07-21T15:17:17;22.00;99.90
61151;DHT22;47029;50.994;2.876;2022-07-21T15:19:44;22.10;99.90
61151;DHT22;47029;50.994;2.876;2022-07-21T15:22:09;22.20;99.90
61151;DHT22;47029;50.994;2.876;2022-07-21T15:24:36;22.30;99.90
61151;DHT22;47029;50.994;2.876;2022-07-21T15:27:02;22.50;99.90
61151;DHT22;47029;50.994;2.876;2022-07-21T15:29:28;22.00;99.90
61151;DHT22;47029;50.994;2.876;2022-07-21T15:31:54;21.70;99.90
61151;DHT22;47029;50.994;2.876;2022-07-21T15:34:20;21.70;99.90
61151;DHT22;47029;50.994;2.876;2022-07-21T15:36:46;21.70;99.90
61151;DHT22;47029;50.994;2.876;2022-07-21T15:39:12;21.60;99.90
61151;DHT22;47029;50.994;2.876;2022-07-21T15:41:39;21.40;99.90
61151;DHT22;47029;50.994;2.876;2022-07-21T15:44:05;21.30;99.90
61151;DHT22;47029;50.994;2.876;2022-07-21T15:46:32;21.00;99.90
61151;DHT22;47029;50.994;2.876;2022-07-21T15:48:59;21.40;99.90
61151;DHT22;47029;50.994;2.876;2022-07-21T15:51:25;21.40;99.90
61151;DHT22;47029;50.994;2.876;2022-07-21T15:53:51;21.40;99.90
61151;DHT22;47029;50.994;2.876;2022-07-21T15:56:17;21.20;99.90
61151;DHT22;47029;50.994;2.876;2022-07-21T15:58:43;21.20;99.90
61151;DHT22;47029;50.994;2.876;2022-07-21T16:01:27;21.20;99.90
61151;DHT22;47029;50.994;2.876;2022-07-21T16:03:53;21.20;99.90
61151;DHT22;47029;50.994;2.876;2022-07-21T16:06:19;21.30;99.90